sensor_id;sensor_type;location;lat;lon;timestamp;P1;durP1;ratioP1;P2;durP2;ratioP2
18170;SDS011;9210;48.358;10.902;2022-08-23T00:02:23;6.63;;;2.97;;
18170;SDS011;9210;48.358;10.902;2022-08-23T00:04:52;3.83;;;2.67;;
18170;SDS011;9210;48.358;10.902;2022-08-23T00:07:35;4.73;;;2.70;;
18170;SDS011;9210;48.358;10.902;2022-08-23T00:10:05;7.00;;;3.00;;
18170;SDS011;9210;48.358;10.902;2022-08-23T00:12:35;5.27;;;2.60;;
18170;SDS011;9210;48.358;10.902;2022-08-23T00:15:04;6.67;;;3.00;;
18170;SDS011;9210;48.358;10.902;2022-08-23T00:17:34;4.47;;;2.87;;
18170;SDS011;9210;48.358;10.902;2022-08-23T00:20:02;5.47;;;2.53;;
18170;SDS011;9210;48.358;10.902;2022-08-23T00:22:31;5.27;;;2.80;;
18170;SDS011;9210;48.358;10.902;2022-08-23T00:25:00;4.40;;;2.77;;
18170;SDS011;9210;48.358;10.902;2022-08-23T00:27:28;3.87;;;2.60;;
18170;SDS011;9210;48.358;10.902;2022-08-23T00:29:58;5.33;;;2.53;;
18170;SDS011;9210;48.358;10.902;2022-08-23T00:32:28;7.57;;;2.50;;
18170;SDS011;9210;48.358;10.902;2022-08-23T00:34:57;3.47;;;2.50;;
18170;SDS011;9210;48.358;10.902;2022-08-23T00:37:26;3.33;;;2.30;;
18170;SDS011;9210;48.358;10.902;2022-08-23T00:39:55;5.73;;;2.80;;
18170;SDS011;9210;48.358;10.902;2022-08-23T00:42:25;4.77;;;2.40;;
18170;SDS011;9210;48.358;10.902;2022-08-23T00:45:16;3.97;;;2.63;;
18170;SDS011;9210;48.358;10.902;2022-08-23T00:48:09;4.10;;;2.37;;
18170;SDS011;9210;48.358;10.902;2022-08-23T00:50:40;6.20;;;3.07;;
18170;SDS011;9210;48.358;10.902;2022-08-23T00:53:11;4.17;;;2.80;;
18170;SDS011;9210;48.358;10.902;2022-08-23T00:55:45;6.43;;;3.10;;
18170;SDS011;9210;48.358;10.902;2022-08-23T00:58:16;4.67;;;2.90;;
18170;SDS011;9210;48.358;10.902;2022-08-23T01:00:46;4.97;;;2.93;;
18170;SDS011;9210;48.358;10.902;2022-08-23T01:03:15;7.33;;;2.90;;
18170;SDS011;9210;48.358;10.902;2022-08-23T01:09:35;5.13;;;2.83;;
18170;SDS011;9210;48.358;10.902;2022-08-23T01:12:06;6.30;;;2.97;;
18170;SDS011;9210;48.358;10.902;2022-08-23T01:14:37;4.67;;;2.97;;
18170;SDS011;9210;48.358;10.902;2022-08-23T01:17:08;4.90;;;3.00;;
18170;SDS011;9210;48.358;10.902;2022-08-23T01:19:41;4.13;;;2.93;;
18170;SDS011;9210;48.358;10.902;2022-08-23T01:22:13;4.40;;;3.20;;
18170;SDS011;9210;48.358;10.902;2022-08-23T01:24:47;6.03;;;3.30;;
18170;SDS011;9210;48.358;10.902;2022-08-23T01:27:37;4.87;;;3.10;;
18170;SDS011;9210;48.358;10.902;2022-08-23T01:30:07;9.20;;;2.97;;
18170;SDS011;9210;48.358;10.902;2022-08-23T01:32:39;6.47;;;3.10;;
18170;SDS011;9210;48.358;10.902;2022-08-23T01:35:08;6.60;;;3.37;;
18170;SDS011;9210;48.358;10.902;2022-08-23T01:37:36;5.83;;;3.27;;
18170;SDS011;9210;48.358;10.902;2022-08-23T01:40:07;5.27;;;3.07;;
18170;SDS011;9210;48.358;10.902;2022-08-23T01:42:36;6.50;;;3.47;;
18170;SDS011;9210;48.358;10.902;2022-08-23T01:45:09;5.97;;;3.83;;
18170;SDS011;9210;48.358;10.902;2022-08-23T01:47:38;4.43;;;3.30;;
18170;SDS011;9210;48.358;10.902;2022-08-23T01:50:08;5.83;;;3.57;;
18170;SDS011;9210;48.358;10.902;2022-08-23T01:52:38;4.00;;;2.87;;
18170;SDS011;9210;48.358;10.902;2022-08-23T01:55:17;3.90;;;2.97;;
18170;SDS011;9210;48.358;10.902;2022-08-23T01:57:50;8.70;;;3.83;;
18170;SDS011;9210;48.358;10.902;2022-08-23T02:00:20;7.17;;;3.70;;
18170;SDS011;9210;48.358;10.902;2022-08-23T02:02:50;6.27;;;3.50;;
18170;SDS011;9210;48.358;10.902;2022-08-23T02:05:21;6.67;;;3.10;;
18170;SDS011;9210;48.358;10.902;2022-08-23T02:07:50;6.00;;;3.30;;
18170;SDS011;9210;48.358;10.902;2022-08-23T02:10:22;5.13;;;3.70;;
18170;SDS011;9210;48.358;10.902;2022-08-23T02:12:51;7.17;;;3.23;;
18170;SDS011;9210;48.358;10.902;2022-08-23T02:15:21;8.17;;;3.70;;
18170;SDS011;9210;48.358;10.902;2022-08-23T02:17:50;5.30;;;3.70;;
18170;SDS011;9210;48.358;10.902;2022-08-23T02:20:21;9.47;;;3.80;;
18170;SDS011;9210;48.358;10.902;2022-08-23T02:22:50;6.17;;;3.37;;
18170;SDS011;9210;48.358;10.902;2022-08-23T02:25:19;5.07;;;3.53;;
18170;SDS011;9210;48.358;10.902;2022-08-23T02:27:49;4.67;;;3.10;;
18170;SDS011;9210;48.358;10.902;2022-08-23T02:30:18;8.60;;;4.00;;
18170;SDS011;9210;48.358;10.902;2022-08-23T02:32:47;6.97;;;3.87;;
18170;SDS011;9210;48.358;10.902;2022-08-23T02:35:17;7.40;;;3.80;;
18170;SDS011;9210;48.358;10.902;2022-08-23T02:37:46;5.80;;;3.97;;
18170;SDS011;9210;48.358;10.902;2022-08-23T02:40:15;6.47;;;3.70;;
18170;SDS011;9210;48.358;10.902;2022-08-23T02:42:43;6.23;;;3.83;;
18170;SDS011;9210;48.358;10.902;2022-08-23T02:45:15;6.67;;;3.60;;
18170;SDS011;9210;48.358;10.902;2022-08-23T02:47:45;8.50;;;4.40;;
18170;SDS011;9210;48.358;10.902;2022-08-23T02:50:21;8.63;;;4.20;;
18170;SDS011;9210;48.358;10.902;2022-08-23T02:52:51;6.17;;;3.67;;
18170;SDS011;9210;48.358;10.902;2022-08-23T02:55:21;5.90;;;3.80;;
18170;SDS011;9210;48.358;10.902;2022-08-23T02:57:50;5.13;;;3.50;;
18170;SDS011;9210;48.358;10.902;2022-08-23T03:00:22;7.83;;;3.77;;
18170;SDS011;9210;48.358;10.902;2022-08-23T03:02:50;6.27;;;3.40;;
18170;SDS011;9210;48.358;10.902;2022-08-23T03:05:20;6.40;;;3.97;;
18170;SDS011;9210;48.358;10.902;2022-08-23T03:07:49;4.33;;;3.40;;
18170;SDS011;9210;48.358;10.902;2022-08-23T03:10:17;6.33;;;3.60;;
18170;SDS011;9210;48.358;10.902;2022-08-23T03:12:53;5.57;;;3.47;;
18170;SDS011;9210;48.358;10.902;2022-08-23T03:15:23;8.57;;;3.93;;
18170;SDS011;9210;48.358;10.902;2022-08-23T03:17:51;8.00;;;3.40;;
18170;SDS011;9210;48.358;10.902;2022-08-23T03:20:20;7.57;;;3.70;;
18170;SDS011;9210;48.358;10.902;2022-08-23T03:22:50;7.80;;;3.50;;
18170;SDS011;9210;48.358;10.902;2022-08-23T03:25:22;6.97;;;3.27;;
18170;SDS011;9210;48.358;10.902;2022-08-23T03:28:01;5.33;;;3.57;;
18170;SDS011;9210;48.358;10.902;2022-08-23T03:30:40;6.17;;;3.90;;
18170;SDS011;9210;48.358;10.902;2022-08-23T03:33:09;4.93;;;3.70;;
18170;SDS011;9210;48.358;10.902;2022-08-23T03:35:38;8.10;;;3.70;;
18170;SDS011;9210;48.358;10.902;2022-08-23T03:38:10;9.67;;;4.00;;
18170;SDS011;9210;48.358;10.902;2022-08-23T03:40:40;6.77;;;3.97;;
18170;SDS011;9210;48.358;10.902;2022-08-23T03:43:11;4.73;;;3.50;;
18170;SDS011;9210;48.358;10.902;2022-08-23T03:45:41;5.93;;;3.40;;
18170;SDS011;9210;48.358;10.902;2022-08-23T03:48:10;7.57;;;3.47;;
18170;SDS011;9210;48.358;10.902;2022-08-23T03:50:39;6.97;;;4.30;;
18170;SDS011;9210;48.358;10.902;2022-08-23T03:53:08;5.80;;;3.70;;
18170;SDS011;9210;48.358;10.902;2022-08-23T03:55:39;4.83;;;3.47;;
18170;SDS011;9210;48.358;10.902;2022-08-23T03:58:11;6.20;;;4.00;;
18170;SDS011;9210;48.358;10.902;2022-08-23T04:00:44;6.90;;;3.70;;
18170;SDS011;9210;48.358;10.902;2022-08-23T04:03:12;6.07;;;4.13;;
18170;SDS011;9210;48.358;10.902;2022-08-23T04:05:59;6.40;;;3.60;;
18170;SDS011;9210;48.358;10.902;2022-08-23T04:08:29;11.37;;;3.47;;
18170;SDS011;9210;48.358;10.902;2022-08-23T04:11:01;5.80;;;3.13;;
18170;SDS011;9210;48.358;10.902;2022-08-23T04:13:30;7.57;;;3.70;;
18170;SDS011;9210;48.358;10.902;2022-08-23T04:16:02;5.37;;;3.97;;
18170;SDS011;9210;48.358;10.902;2022-08-23T04:18:32;6.93;;;3.60;;
18170;SDS011;9210;48.358;10.902;2022-08-23T04:21:04;8.10;;;3.63;;
18170;SDS011;9210;48.358;10.902;2022-08-23T04:23:33;8.70;;;3.83;;
18170;SDS011;9210;48.358;10.902;2022-08-23T04:26:02;5.67;;;3.50;;
18170;SDS011;9210;48.358;10.902;2022-08-23T04:28:35;6.87;;;3.90;;
18170;SDS011;9210;48.358;10.902;2022-08-23T04:31:04;5.93;;;3.80;;
18170;SDS011;9210;48.358;10.902;2022-08-23T04:33:35;7.30;;;4.10;;
18170;SDS011;9210;48.358;10.902;2022-08-23T04:36:07;8.37;;;4.40;;
18170;SDS011;9210;48.358;10.902;2022-08-23T04:38:36;7.73;;;4.10;;
18170;SDS011;9210;48.358;10.902;2022-08-23T04:41:05;9.57;;;3.80;;
18170;SDS011;9210;48.358;10.902;2022-08-23T04:43:53;5.83;;;3.83;;
18170;SDS011;9210;48.358;10.902;2022-08-23T04:46:25;5.77;;;3.50;;
18170;SDS011;9210;48.358;10.902;2022-08-23T04:48:57;10.20;;;4.13;;
18170;SDS011;9210;48.358;10.902;2022-08-23T04:51:26;5.80;;;3.70;;
18170;SDS011;9210;48.358;10.902;2022-08-23T04:53:54;8.80;;;4.20;;
18170;SDS011;9210;48.358;10.902;2022-08-23T04:56:41;6.40;;;4.10;;
18170;SDS011;9210;48.358;10.902;2022-08-23T04:59:17;8.17;;;4.70;;
18170;SDS011;9210;48.358;10.902;2022-08-23T05:01:47;8.10;;;4.50;;
18170;SDS011;9210;48.358;10.902;2022-08-23T05:04:18;7.77;;;4.27;;
18170;SDS011;9210;48.358;10.902;2022-08-23T05:06:47;7.77;;;4.10;;
18170;SDS011;9210;48.358;10.902;2022-08-23T05:09:19;7.87;;;4.70;;
18170;SDS011;9210;48.358;10.902;2022-08-23T05:11:50;7.97;;;4.60;;
18170;SDS011;9210;48.358;10.902;2022-08-23T05:14:26;8.77;;;4.77;;
18170;SDS011;9210;48.358;10.902;2022-08-23T05:16:57;7.27;;;4.60;;
18170;SDS011;9210;48.358;10.902;2022-08-23T05:19:25;6.70;;;4.40;;
18170;SDS011;9210;48.358;10.902;2022-08-23T05:21:54;10.27;;;4.73;;
18170;SDS011;9210;48.358;10.902;2022-08-23T05:24:34;8.63;;;5.43;;
18170;SDS011;9210;48.358;10.902;2022-08-23T05:27:04;8.27;;;5.13;;
18170;SDS011;9210;48.358;10.902;2022-08-23T05:29:38;8.70;;;5.03;;
18170;SDS011;9210;48.358;10.902;2022-08-23T05:32:08;10.67;;;5.57;;
18170;SDS011;9210;48.358;10.902;2022-08-23T05:34:37;7.50;;;5.30;;
18170;SDS011;9210;48.358;10.902;2022-08-23T05:37:08;8.23;;;5.17;;
18170;SDS011;9210;48.358;10.902;2022-08-23T05:39:40;10.07;;;5.50;;
18170;SDS011;9210;48.358;10.902;2022-08-23T05:42:10;8.07;;;5.03;;
18170;SDS011;9210;48.358;10.902;2022-08-23T05:44:40;11.53;;;5.17;;
18170;SDS011;9210;48.358;10.902;2022-08-23T05:47:11;8.33;;;5.30;;
18170;SDS011;9210;48.358;10.902;2022-08-23T05:49:59;12.00;;;5.97;;
18170;SDS011;9210;48.358;10.902;2022-08-23T05:52:31;11.67;;;6.63;;
18170;SDS011;9210;48.358;10.902;2022-08-23T05:55:00;11.03;;;7.00;;
18170;SDS011;9210;48.358;10.902;2022-08-23T05:57:34;9.27;;;6.23;;
18170;SDS011;9210;48.358;10.902;2022-08-23T06:00:03;9.17;;;5.60;;
18170;SDS011;9210;48.358;10.902;2022-08-23T06:02:45;10.43;;;5.07;;
18170;SDS011;9210;48.358;10.902;2022-08-23T06:05:15;11.20;;;7.40;;
18170;SDS011;9210;48.358;10.902;2022-08-23T06:07:45;7.93;;;5.50;;
18170;SDS011;9210;48.358;10.902;2022-08-23T06:10:15;12.90;;;6.80;;
18170;SDS011;9210;48.358;10.902;2022-08-23T06:12:50;13.60;;;6.67;;
18170;SDS011;9210;48.358;10.902;2022-08-23T06:15:19;10.20;;;6.43;;
18170;SDS011;9210;48.358;10.902;2022-08-23T06:17:49;8.07;;;5.60;;
18170;SDS011;9210;48.358;10.902;2022-08-23T06:20:17;8.27;;;5.50;;
18170;SDS011;9210;48.358;10.902;2022-08-23T06:23:04;10.83;;;6.17;;
18170;SDS011;9210;48.358;10.902;2022-08-23T06:25:34;9.13;;;6.20;;
18170;SDS011;9210;48.358;10.902;2022-08-23T06:28:08;10.37;;;6.40;;
18170;SDS011;9210;48.358;10.902;2022-08-23T06:30:40;10.20;;;6.33;;
18170;SDS011;9210;48.358;10.902;2022-08-23T06:33:18;10.40;;;6.03;;
18170;SDS011;9210;48.358;10.902;2022-08-23T06:36:11;7.50;;;5.47;;
18170;SDS011;9210;48.358;10.902;2022-08-23T06:39:02;9.23;;;6.40;;
18170;SDS011;9210;48.358;10.902;2022-08-23T06:41:43;8.70;;;5.57;;
18170;SDS011;9210;48.358;10.902;2022-08-23T06:44:25;8.07;;;5.77;;
18170;SDS011;9210;48.358;10.902;2022-08-23T06:47:10;10.13;;;5.77;;
18170;SDS011;9210;48.358;10.902;2022-08-23T06:49:41;7.43;;;4.90;;
18170;SDS011;9210;48.358;10.902;2022-08-23T06:52:42;11.60;;;6.13;;
18170;SDS011;9210;48.358;10.902;2022-08-23T06:55:18;7.00;;;5.40;;
18170;SDS011;9210;48.358;10.902;2022-08-23T06:58:01;7.47;;;5.40;;
18170;SDS011;9210;48.358;10.902;2022-08-23T07:00:50;7.63;;;5.10;;
18170;SDS011;9210;48.358;10.902;2022-08-23T07:03:32;10.63;;;5.00;;
18170;SDS011;9210;48.358;10.902;2022-08-23T07:06:22;11.00;;;5.80;;
18170;SDS011;9210;48.358;10.902;2022-08-23T07:08:50;8.70;;;5.80;;
18170;SDS011;9210;48.358;10.902;2022-08-23T07:11:19;8.07;;;5.23;;
18170;SDS011;9210;48.358;10.902;2022-08-23T07:13:48;7.43;;;4.87;;
18170;SDS011;9210;48.358;10.902;2022-08-23T07:16:18;10.00;;;4.75;;
18170;SDS011;9210;48.358;10.902;2022-08-23T07:18:47;10.63;;;5.15;;
18170;SDS011;9210;48.358;10.902;2022-08-23T07:21:17;7.90;;;4.57;;
18170;SDS011;9210;48.358;10.902;2022-08-23T07:23:47;7.97;;;4.68;;
18170;SDS011;9210;48.358;10.902;2022-08-23T07:26:16;5.75;;;4.50;;
18170;SDS011;9210;48.358;10.902;2022-08-23T07:28:45;6.07;;;4.30;;
18170;SDS011;9210;48.358;10.902;2022-08-23T07:31:14;7.70;;;4.57;;
18170;SDS011;9210;48.358;10.902;2022-08-23T07:33:44;10.23;;;4.50;;
18170;SDS011;9210;48.358;10.902;2022-08-23T07:36:18;7.90;;;4.10;;
18170;SDS011;9210;48.358;10.902;2022-08-23T07:38:49;8.93;;;4.65;;
18170;SDS011;9210;48.358;10.902;2022-08-23T07:41:18;5.32;;;3.78;;
18170;SDS011;9210;48.358;10.902;2022-08-23T07:43:47;7.43;;;3.63;;
18170;SDS011;9210;48.358;10.902;2022-08-23T07:46:15;7.40;;;4.20;;
18170;SDS011;9210;48.358;10.902;2022-08-23T07:48:45;8.20;;;4.10;;
18170;SDS011;9210;48.358;10.902;2022-08-23T07:51:23;5.82;;;3.80;;
18170;SDS011;9210;48.358;10.902;2022-08-23T07:53:53;10.20;;;4.15;;
18170;SDS011;9210;48.358;10.902;2022-08-23T07:56:21;6.03;;;3.75;;
18170;SDS011;9210;48.358;10.902;2022-08-23T07:58:56;6.75;;;3.95;;
18170;SDS011;9210;48.358;10.902;2022-08-23T08:01:45;7.15;;;3.78;;
18170;SDS011;9210;48.358;10.902;2022-08-23T08:04:13;6.30;;;3.38;;
18170;SDS011;9210;48.358;10.902;2022-08-23T08:06:46;5.07;;;2.88;;
18170;SDS011;9210;48.358;10.902;2022-08-23T08:09:39;5.90;;;2.92;;
18170;SDS011;9210;48.358;10.902;2022-08-23T08:12:07;10.77;;;3.50;;
18170;SDS011;9210;48.358;10.902;2022-08-23T08:14:39;6.68;;;3.20;;
18170;SDS011;9210;48.358;10.902;2022-08-23T08:17:08;4.63;;;3.30;;
18170;SDS011;9210;48.358;10.902;2022-08-23T08:20:06;5.00;;;2.95;;
18170;SDS011;9210;48.358;10.902;2022-08-23T08:22:55;5.70;;;3.20;;
18170;SDS011;9210;48.358;10.902;2022-08-23T08:25:58;6.28;;;2.97;;
18170;SDS011;9210;48.358;10.902;2022-08-23T08:28:28;5.10;;;2.65;;
18170;SDS011;9210;48.358;10.902;2022-08-23T08:30:57;4.82;;;2.65;;
18170;SDS011;9210;48.358;10.902;2022-08-23T08:33:26;3.60;;;2.38;;
18170;SDS011;9210;48.358;10.902;2022-08-23T08:35:57;4.25;;;2.70;;
18170;SDS011;9210;48.358;10.902;2022-08-23T08:38:28;8.73;;;2.90;;
18170;SDS011;9210;48.358;10.902;2022-08-23T08:41:06;5.15;;;2.92;;
18170;SDS011;9210;48.358;10.902;2022-08-23T08:43:38;6.68;;;2.70;;
18170;SDS011;9210;48.358;10.902;2022-08-23T08:46:12;5.05;;;2.65;;
18170;SDS011;9210;48.358;10.902;2022-08-23T08:48:44;5.88;;;2.58;;
18170;SDS011;9210;48.358;10.902;2022-08-23T08:51:17;5.72;;;2.78;;
18170;SDS011;9210;48.358;10.902;2022-08-23T08:53:47;3.80;;;2.55;;
18170;SDS011;9210;48.358;10.902;2022-08-23T08:56:31;4.68;;;2.45;;
18170;SDS011;9210;48.358;10.902;2022-08-23T08:59:08;5.03;;;2.85;;
18170;SDS011;9210;48.358;10.902;2022-08-23T09:01:39;4.75;;;2.30;;
18170;SDS011;9210;48.358;10.902;2022-08-23T09:04:11;4.32;;;2.30;;
18170;SDS011;9210;48.358;10.902;2022-08-23T09:06:43;4.72;;;2.17;;
18170;SDS011;9210;48.358;10.902;2022-08-23T09:09:19;3.40;;;2.10;;
18170;SDS011;9210;48.358;10.902;2022-08-23T09:11:54;3.03;;;1.88;;
18170;SDS011;9210;48.358;10.902;2022-08-23T09:14:37;4.82;;;2.30;;
18170;SDS011;9210;48.358;10.902;2022-08-23T09:17:13;7.25;;;2.22;;
18170;SDS011;9210;48.358;10.902;2022-08-23T09:19:47;3.88;;;2.00;;
18170;SDS011;9210;48.358;10.902;2022-08-23T09:22:18;3.55;;;2.17;;
18170;SDS011;9210;48.358;10.902;2022-08-23T09:24:48;7.22;;;2.63;;
18170;SDS011;9210;48.358;10.902;2022-08-23T09:27:26;4.82;;;2.15;;
18170;SDS011;9210;48.358;10.902;2022-08-23T09:29:59;3.33;;;1.77;;
18170;SDS011;9210;48.358;10.902;2022-08-23T09:32:33;5.47;;;2.28;;
18170;SDS011;9210;48.358;10.902;2022-08-23T09:35:09;4.65;;;2.20;;
18170;SDS011;9210;48.358;10.902;2022-08-23T09:37:48;4.45;;;2.35;;
18170;SDS011;9210;48.358;10.902;2022-08-23T09:40:18;4.35;;;2.10;;
18170;SDS011;9210;48.358;10.902;2022-08-23T09:43:02;3.65;;;2.17;;
18170;SDS011;9210;48.358;10.902;2022-08-23T09:45:32;4.38;;;2.17;;
18170;SDS011;9210;48.358;10.902;2022-08-23T09:48:04;7.60;;;2.50;;
18170;SDS011;9210;48.358;10.902;2022-08-23T09:50:43;5.40;;;2.60;;
18170;SDS011;9210;48.358;10.902;2022-08-23T09:53:15;6.38;;;2.38;;
18170;SDS011;9210;48.358;10.902;2022-08-23T09:55:51;5.40;;;2.10;;
18170;SDS011;9210;48.358;10.902;2022-08-23T09:58:23;4.20;;;2.15;;
18170;SDS011;9210;48.358;10.902;2022-08-23T10:01:01;6.32;;;2.17;;
18170;SDS011;9210;48.358;10.902;2022-08-23T10:03:33;3.72;;;2.05;;
18170;SDS011;9210;48.358;10.902;2022-08-23T10:06:28;3.75;;;1.85;;
18170;SDS011;9210;48.358;10.902;2022-08-23T10:09:00;8.57;;;1.92;;
18170;SDS011;9210;48.358;10.902;2022-08-23T10:11:35;4.30;;;1.98;;
18170;SDS011;9210;48.358;10.902;2022-08-23T10:14:08;6.32;;;2.20;;
18170;SDS011;9210;48.358;10.902;2022-08-23T10:16:39;5.18;;;2.00;;
18170;SDS011;9210;48.358;10.902;2022-08-23T10:19:13;4.68;;;1.80;;
18170;SDS011;9210;48.358;10.902;2022-08-23T10:21:48;4.40;;;2.05;;
18170;SDS011;9210;48.358;10.902;2022-08-23T10:24:22;6.25;;;2.00;;
18170;SDS011;9210;48.358;10.902;2022-08-23T10:26:58;5.68;;;2.10;;
18170;SDS011;9210;48.358;10.902;2022-08-23T10:29:51;3.20;;;1.50;;
18170;SDS011;9210;48.358;10.902;2022-08-23T10:32:25;2.78;;;1.48;;
18170;SDS011;9210;48.358;10.902;2022-08-23T10:35:02;3.72;;;1.35;;
18170;SDS011;9210;48.358;10.902;2022-08-23T10:37:43;3.05;;;1.73;;
18170;SDS011;9210;48.358;10.902;2022-08-23T10:40:15;3.17;;;1.50;;
18170;SDS011;9210;48.358;10.902;2022-08-23T10:42:50;4.70;;;1.63;;
18170;SDS011;9210;48.358;10.902;2022-08-23T10:45:25;5.70;;;2.03;;
18170;SDS011;9210;48.358;10.902;2022-08-23T10:47:59;4.68;;;1.60;;
18170;SDS011;9210;48.358;10.902;2022-08-23T10:50:31;4.25;;;1.88;;
18170;SDS011;9210;48.358;10.902;2022-08-23T10:53:08;3.83;;;1.75;;
18170;SDS011;9210;48.358;10.902;2022-08-23T10:55:41;4.72;;;2.08;;
18170;SDS011;9210;48.358;10.902;2022-08-23T10:58:23;5.40;;;2.00;;
18170;SDS011;9210;48.358;10.902;2022-08-23T11:00:58;3.47;;;1.92;;
18170;SDS011;9210;48.358;10.902;2022-08-23T11:03:28;4.95;;;2.00;;
18170;SDS011;9210;48.358;10.902;2022-08-23T11:08:46;5.13;;;2.25;;
18170;SDS011;9210;48.358;10.902;2022-08-23T11:14:10;5.30;;;2.13;;
18170;SDS011;9210;48.358;10.902;2022-08-23T11:16:42;5.35;;;2.30;;
18170;SDS011;9210;48.358;10.902;2022-08-23T11:19:19;5.28;;;1.98;;
18170;SDS011;9210;48.358;10.902;2022-08-23T11:22:11;6.53;;;1.90;;
18170;SDS011;9210;48.358;10.902;2022-08-23T11:24:48;6.50;;;2.35;;
18170;SDS011;9210;48.358;10.902;2022-08-23T11:33:09;4.47;;;1.92;;
18170;SDS011;9210;48.358;10.902;2022-08-23T11:35:43;6.45;;;2.20;;
18170;SDS011;9210;48.358;10.902;2022-08-23T11:38:14;7.72;;;2.10;;
18170;SDS011;9210;48.358;10.902;2022-08-23T11:43:34;3.67;;;2.08;;
18170;SDS011;9210;48.358;10.902;2022-08-23T11:46:15;3.78;;;1.80;;
18170;SDS011;9210;48.358;10.902;2022-08-23T11:48:47;2.70;;;1.80;;
18170;SDS011;9210;48.358;10.902;2022-08-23T11:51:19;5.53;;;1.90;;
18170;SDS011;9210;48.358;10.902;2022-08-23T11:54:00;6.82;;;2.10;;
18170;SDS011;9210;48.358;10.902;2022-08-23T11:56:39;4.07;;;1.77;;
18170;SDS011;9210;48.358;10.902;2022-08-23T11:59:15;5.70;;;2.00;;
18170;SDS011;9210;48.358;10.902;2022-08-23T12:01:50;4.80;;;1.90;;
18170;SDS011;9210;48.358;10.902;2022-08-23T12:04:33;7.00;;;2.20;;
18170;SDS011;9210;48.358;10.902;2022-08-23T12:07:03;5.85;;;2.22;;
18170;SDS011;9210;48.358;10.902;2022-08-23T12:09:51;4.75;;;2.00;;
18170;SDS011;9210;48.358;10.902;2022-08-23T12:12:27;5.50;;;2.20;;
18170;SDS011;9210;48.358;10.902;2022-08-23T12:15:06;5.68;;;2.00;;
18170;SDS011;9210;48.358;10.902;2022-08-23T12:20:32;5.03;;;1.85;;
18170;SDS011;9210;48.358;10.902;2022-08-23T12:23:15;3.58;;;1.90;;
18170;SDS011;9210;48.358;10.902;2022-08-23T12:25:43;5.60;;;2.08;;
18170;SDS011;9210;48.358;10.902;2022-08-23T12:28:21;5.65;;;2.00;;
18170;SDS011;9210;48.358;10.902;2022-08-23T12:30:56;5.53;;;2.08;;
18170;SDS011;9210;48.358;10.902;2022-08-23T12:33:36;5.13;;;1.98;;
18170;SDS011;9210;48.358;10.902;2022-08-23T12:36:12;4.75;;;1.75;;
18170;SDS011;9210;48.358;10.902;2022-08-23T12:38:47;4.38;;;1.65;;
18170;SDS011;9210;48.358;10.902;2022-08-23T12:41:21;4.10;;;1.70;;
18170;SDS011;9210;48.358;10.902;2022-08-23T12:43:58;6.78;;;1.70;;
18170;SDS011;9210;48.358;10.902;2022-08-23T12:46:28;4.43;;;1.80;;
18170;SDS011;9210;48.358;10.902;2022-08-23T12:48:57;5.47;;;1.77;;
18170;SDS011;9210;48.358;10.902;2022-08-23T12:51:27;3.63;;;1.83;;
18170;SDS011;9210;48.358;10.902;2022-08-23T12:53:55;4.00;;;1.63;;
18170;SDS011;9210;48.358;10.902;2022-08-23T12:56:27;8.65;;;2.22;;
18170;SDS011;9210;48.358;10.902;2022-08-23T12:58:58;6.03;;;1.63;;
18170;SDS011;9210;48.358;10.902;2022-08-23T13:01:29;4.43;;;1.58;;
18170;SDS011;9210;48.358;10.902;2022-08-23T13:03:59;7.38;;;1.80;;
18170;SDS011;9210;48.358;10.902;2022-08-23T13:06:32;3.53;;;1.80;;
18170;SDS011;9210;48.358;10.902;2022-08-23T13:09:05;5.22;;;1.85;;
18170;SDS011;9210;48.358;10.902;2022-08-23T13:11:35;5.25;;;1.80;;
18170;SDS011;9210;48.358;10.902;2022-08-23T13:14:20;6.20;;;1.70;;
18170;SDS011;9210;48.358;10.902;2022-08-23T13:16:50;5.07;;;1.80;;
18170;SDS011;9210;48.358;10.902;2022-08-23T13:19:22;5.78;;;1.83;;
18170;SDS011;9210;48.358;10.902;2022-08-23T13:22:12;3.60;;;1.60;;
18170;SDS011;9210;48.358;10.902;2022-08-23T13:24:41;5.03;;;1.85;;
18170;SDS011;9210;48.358;10.902;2022-08-23T13:27:20;3.88;;;1.60;;
18170;SDS011;9210;48.358;10.902;2022-08-23T13:29:50;4.70;;;1.80;;
18170;SDS011;9210;48.358;10.902;2022-08-23T13:32:26;3.75;;;1.77;;
18170;SDS011;9210;48.358;10.902;2022-08-23T13:37:41;4.85;;;1.77;;
18170;SDS011;9210;48.358;10.902;2022-08-23T13:40:13;6.20;;;1.70;;
18170;SDS011;9210;48.358;10.902;2022-08-23T13:42:46;3.05;;;1.60;;
18170;SDS011;9210;48.358;10.902;2022-08-23T13:45:22;4.60;;;2.10;;
18170;SDS011;9210;48.358;10.902;2022-08-23T13:47:54;3.47;;;1.77;;
18170;SDS011;9210;48.358;10.902;2022-08-23T13:50:24;4.85;;;1.83;;
18170;SDS011;9210;48.358;10.902;2022-08-23T13:52:54;5.05;;;2.15;;
18170;SDS011;9210;48.358;10.902;2022-08-23T13:55:40;4.07;;;1.92;;
18170;SDS011;9210;48.358;10.902;2022-08-23T13:58:10;5.60;;;1.83;;
18170;SDS011;9210;48.358;10.902;2022-08-23T14:00:39;4.00;;;1.70;;
18170;SDS011;9210;48.358;10.902;2022-08-23T14:03:21;5.13;;;1.80;;
18170;SDS011;9210;48.358;10.902;2022-08-23T14:05:51;6.35;;;1.60;;
18170;SDS011;9210;48.358;10.902;2022-08-23T14:08:21;5.80;;;1.73;;
18170;SDS011;9210;48.358;10.902;2022-08-23T14:10:49;4.65;;;1.90;;
18170;SDS011;9210;48.358;10.902;2022-08-23T14:13:18;4.60;;;1.90;;
18170;SDS011;9210;48.358;10.902;2022-08-23T14:15:49;3.25;;;1.52;;
18170;SDS011;9210;48.358;10.902;2022-08-23T14:18:38;4.00;;;1.52;;
18170;SDS011;9210;48.358;10.902;2022-08-23T14:21:26;5.10;;;2.08;;
18170;SDS011;9210;48.358;10.902;2022-08-23T14:23:56;2.45;;;1.52;;
18170;SDS011;9210;48.358;10.902;2022-08-23T14:26:24;3.95;;;1.83;;
18170;SDS011;9210;48.358;10.902;2022-08-23T14:28:53;4.00;;;1.67;;
18170;SDS011;9210;48.358;10.902;2022-08-23T14:31:21;3.53;;;1.63;;
18170;SDS011;9210;48.358;10.902;2022-08-23T14:33:50;3.05;;;1.70;;
18170;SDS011;9210;48.358;10.902;2022-08-23T14:36:19;7.80;;;2.10;;
18170;SDS011;9210;48.358;10.902;2022-08-23T14:38:53;4.63;;;1.90;;
18170;SDS011;9210;48.358;10.902;2022-08-23T14:41:23;3.65;;;1.85;;
18170;SDS011;9210;48.358;10.902;2022-08-23T14:43:52;3.08;;;1.70;;
18170;SDS011;9210;48.358;10.902;2022-08-23T14:46:21;5.60;;;1.80;;
18170;SDS011;9210;48.358;10.902;2022-08-23T14:48:49;3.33;;;1.80;;
18170;SDS011;9210;48.358;10.902;2022-08-23T14:51:21;5.32;;;1.80;;
18170;SDS011;9210;48.358;10.902;2022-08-23T14:53:51;5.18;;;1.80;;
18170;SDS011;9210;48.358;10.902;2022-08-23T14:56:19;4.80;;;2.08;;
18170;SDS011;9210;48.358;10.902;2022-08-23T14:58:49;3.45;;;1.90;;
18170;SDS011;9210;48.358;10.902;2022-08-23T15:01:18;4.22;;;1.80;;
18170;SDS011;9210;48.358;10.902;2022-08-23T15:03:47;4.88;;;1.95;;
18170;SDS011;9210;48.358;10.902;2022-08-23T15:06:17;5.70;;;1.90;;
18170;SDS011;9210;48.358;10.902;2022-08-23T15:08:46;8.52;;;2.20;;
18170;SDS011;9210;48.358;10.902;2022-08-23T15:11:15;5.22;;;1.70;;
18170;SDS011;9210;48.358;10.902;2022-08-23T15:14:05;4.35;;;1.80;;
18170;SDS011;9210;48.358;10.902;2022-08-23T15:16:33;6.05;;;2.10;;
18170;SDS011;9210;48.358;10.902;2022-08-23T15:19:02;6.57;;;2.20;;
18170;SDS011;9210;48.358;10.902;2022-08-23T15:21:34;5.55;;;1.90;;
18170;SDS011;9210;48.358;10.902;2022-08-23T15:24:03;4.93;;;2.03;;
18170;SDS011;9210;48.358;10.902;2022-08-23T15:26:35;4.03;;;1.95;;
18170;SDS011;9210;48.358;10.902;2022-08-23T15:29:04;6.82;;;2.00;;
18170;SDS011;9210;48.358;10.902;2022-08-23T15:31:33;3.58;;;1.83;;
18170;SDS011;9210;48.358;10.902;2022-08-23T15:34:02;5.70;;;2.00;;
18170;SDS011;9210;48.358;10.902;2022-08-23T15:36:38;5.68;;;1.90;;
18170;SDS011;9210;48.358;10.902;2022-08-23T15:39:08;5.13;;;1.98;;
18170;SDS011;9210;48.358;10.902;2022-08-23T15:41:36;5.10;;;2.15;;
18170;SDS011;9210;48.358;10.902;2022-08-23T15:44:06;4.72;;;1.50;;
18170;SDS011;9210;48.358;10.902;2022-08-23T15:46:34;5.22;;;1.65;;